sensor_id;sensor_type;location;lat;lon;timestamp;pressure;altitude;pressure_sealevel;temperature;humidity
44457;BME280;30159;49.316;8.558;2022-11-20T00:00:02;99979.09;;;5.21;100.00
44457;BME280;30159;49.316;8.558;2022-11-20T00:02:29;99989.25;;;5.51;100.00
44457;BME280;30159;49.316;8.558;2022-11-20T00:04:55;99987.69;;;5.55;100.00
44457;BME280;30159;49.316;8.558;2022-11-20T00:07:23;100003.75;;;5.60;100.00
44457;BME280;30159;49.316;8.558;2022-11-20T00:09:49;100002.66;;;5.56;100.00
44457;BME280;30159;49.316;8.558;2022-11-20T00:12:16;100007.53;;;5.64;100.00
44457;BME280;30159;49.316;8.558;2022-11-20T00:14:42;99999.50;;;5.64;100.00
44457;BME280;30159;49.316;8.558;2022-11-20T00:17:10;99990.06;;;5.57;100.00
44457;BME280;30159;49.316;8.558;2022-11-20T00:19:36;99999.00;;;5.67;100.00
44457;BME280;30159;49.316;8.558;2022-11-20T00:22:03;99987.75;;;5.65;100.00
44457;BME280;30159;49.316;8.558;2022-11-20T00:24:29;100005.41;;;5.66;100.00
44457;BME280;30159;49.316;8.558;2022-11-20T00:26:56;99973.34;;;5.34;100.00
44457;BME280;30159;49.316;8.558;2022-11-20T00:29:22;100001.53;;;5.52;100.00
44457;BME280;30159;49.316;8.558;2022-11-20T00:31:49;99993.31;;;5.59;100.00
44457;BME280;30159;49.316;8.558;2022-11-20T00:34:17;99997.88;;;5.63;100.00
44457;BME280;30159;49.316;8.558;2022-11-20T00:36:43;99992.56;;;5.68;100.00
44457;BME280;30159;49.316;8.558;2022-11-20T00:39:10;99984.78;;;5.62;100.00
44457;BME280;30159;49.316;8.558;2022-11-20T00:41:36;99993.41;;;5.69;100.00
44457;BME280;30159;49.316;8.558;2022-11-20T00:44:03;99995.53;;;5.72;100.00
44457;BME280;30159;49.316;8.558;2022-11-20T00:46:30;99957.94;;;5.52;100.00
44457;BME280;30159;49.316;8.558;2022-11-20T00:48:56;99995.81;;;5.76;100.00
44457;BME280;30159;49.316;8.558;2022-11-20T00:51:26;99993.69;;;5.78;100.00
44457;BME280;30159;49.316;8.558;2022-11-20T00:53:55;99929.47;;;5.35;100.00
44457;BME280;30159;49.316;8.558;2022-11-20T00:56:21;100002.28;;;5.80;100.00
44457;BME280;30159;49.316;8.558;2022-11-20T00:58:49;99987.31;;;5.79;100.00
44457;BME280;30159;49.316;8.558;2022-11-20T01:01:18;99985.44;;;5.84;100.00
44457;BME280;30159;49.316;8.558;2022-11-20T01:03:46;99959.88;;;5.61;100.00
44457;BME280;30159;49.316;8.558;2022-11-20T01:06:15;99975.75;;;5.73;100.00
44457;BME280;30159;49.316;8.558;2022-11-20T01:08:44;99988.91;;;5.80;100.00
44457;BME280;30159;49.316;8.558;2022-11-20T01:11:13;99984.88;;;5.77;100.00
44457;BME280;30159;49.316;8.558;2022-11-20T01:13:41;99988.91;;;5.80;100.00
44457;BME280;30159;49.316;8.558;2022-11-20T01:16:09;99990.47;;;5.76;100.00
44457;BME280;30159;49.316;8.558;2022-11-20T01:18:38;99988.91;;;5.80;100.00
44457;BME280;30159;49.316;8.558;2022-11-20T01:21:07;99989.97;;;5.79;100.00
44457;BME280;30159;49.316;8.558;2022-11-20T01:23:35;99989.94;;;5.74;100.00
44457;BME280;30159;49.316;8.558;2022-11-20T01:26:05;99989.44;;;5.77;100.00
44457;BME280;30159;49.316;8.558;2022-11-20T01:28:32;99986.22;;;5.80;100.00
44457;BME280;30159;49.316;8.558;2022-11-20T01:30:59;99978.69;;;5.72;100.00
44457;BME280;30159;49.316;8.558;2022-11-20T01:33:26;99985.72;;;5.83;100.00
44457;BME280;30159;49.316;8.558;2022-11-20T01:35:53;99988.13;;;5.84;100.00
44457;BME280;30159;49.316;8.558;2022-11-20T01:38:19;99988.94;;;5.85;100.00
44457;BME280;30159;49.316;8.558;2022-11-20T01:40:53;99984.06;;;5.77;100.00
44457;BME280;30159;49.316;8.558;2022-11-20T01:43:22;99984.31;;;5.75;100.00
44457;BME280;30159;49.316;8.558;2022-11-20T01:45:59;99973.56;;;5.65;100.00
44457;BME280;30159;49.316;8.558;2022-11-20T01:48:30;99978.97;;;5.75;100.00
44457;BME280;30159;49.316;8.558;2022-11-20T01:50:58;99975.81;;;5.83;100.00
44457;BME280;30159;49.316;8.558;2022-11-20T01:53:30;99956.47;;;5.71;100.00
44457;BME280;30159;49.316;8.558;2022-11-20T01:56:00;99969.13;;;5.81;100.00
44457;BME280;30159;49.316;8.558;2022-11-20T01:58:32;99927.50;;;5.58;100.00
44457;BME280;30159;49.316;8.558;2022-11-20T02:00:59;99979.88;;;5.91;100.00
44457;BME280;30159;49.316;8.558;2022-11-20T02:03:26;99981.56;;;5.97;100.00
44457;BME280;30159;49.316;8.558;2022-11-20T02:05:55;99974.53;;;5.91;100.00
44457;BME280;30159;49.316;8.558;2022-11-20T02:08:24;99978.59;;;5.99;100.00
44457;BME280;30159;49.316;8.558;2022-11-20T02:10:50;99976.75;;;5.99;100.00
44457;BME280;30159;49.316;8.558;2022-11-20T02:13:17;99976.22;;;5.97;100.00
44457;BME280;30159;49.316;8.558;2022-11-20T02:16:03;99917.03;;;5.51;100.00
44457;BME280;30159;49.316;8.558;2022-11-20T02:18:30;99965.63;;;5.80;100.00
44457;BME280;30159;49.316;8.558;2022-11-20T02:20:59;99972.19;;;5.95;100.00
44457;BME280;30159;49.316;8.558;2022-11-20T02:23:31;99970.31;;;5.95;100.00
44457;BME280;30159;49.316;8.558;2022-11-20T02:26:02;99973.47;;;5.92;100.00
44457;BME280;30159;49.316;8.558;2022-11-20T02:28:30;99971.84;;;5.91;100.00
44457;BME280;30159;49.316;8.558;2022-11-20T02:30:57;99957.91;;;5.89;100.00
44457;BME280;30159;49.316;8.558;2022-11-20T02:33:24;99784.19;;;4.77;100.00
44457;BME280;30159;49.316;8.558;2022-11-20T02:35:50;99907.97;;;5.57;100.00
44457;BME280;30159;49.316;8.558;2022-11-20T02:38:17;99960.66;;;5.94;100.00
44457;BME280;30159;49.316;8.558;2022-11-20T02:40:44;99959.25;;;5.86;100.00
44457;BME280;30159;49.316;8.558;2022-11-20T02:43:12;99954.69;;;5.87;100.00
44457;BME280;30159;49.316;8.558;2022-11-20T02:45:40;99942.38;;;5.86;100.00
44457;BME280;30159;49.316;8.558;2022-11-20T02:48:07;99950.78;;;5.95;100.00
44457;BME280;30159;49.316;8.558;2022-11-20T02:50:37;99944.88;;;5.98;100.00
44457;BME280;30159;49.316;8.558;2022-11-20T02:53:04;99947.56;;;5.98;100.00
44457;BME280;30159;49.316;8.558;2022-11-20T02:55:30;99791.56;;;4.97;100.00
44457;BME280;30159;49.316;8.558;2022-11-20T02:57:57;99946.22;;;5.95;100.00
44457;BME280;30159;49.316;8.558;2022-11-20T03:00:25;99915.63;;;5.86;100.00
44457;BME280;30159;49.316;8.558;2022-11-20T03:02:51;99929.81;;;5.91;100.00
44457;BME280;30159;49.316;8.558;2022-11-20T03:05:18;99934.97;;;5.98;100.00
44457;BME280;30159;49.316;8.558;2022-11-20T03:07:45;99901.13;;;5.77;100.00
44457;BME280;30159;49.316;8.558;2022-11-20T03:10:11;99944.63;;;5.99;100.00
44457;BME280;30159;49.316;8.558;2022-11-20T03:12:38;99946.25;;;6.05;100.00
44457;BME280;30159;49.316;8.558;2022-11-20T03:15:05;99929.09;;;6.01;100.00
44457;BME280;30159;49.316;8.558;2022-11-20T03:17:33;99933.41;;;6.07;100.00
44457;BME280;30159;49.316;8.558;2022-11-20T03:20:00;99925.38;;;6.07;100.00
44457;BME280;30159;49.316;8.558;2022-11-20T03:22:28;99923.50;;;6.08;100.00
44457;BME280;30159;49.316;8.558;2022-11-20T03:24:55;99936.13;;;6.12;100.00
44457;BME280;30159;49.316;8.558;2022-11-20T03:27:24;99919.56;;;6.16;100.00
44457;BME280;30159;49.316;8.558;2022-11-20T03:29:50;99930.25;;;6.16;100.00
44457;BME280;30159;49.316;8.558;2022-11-20T03:32:17;99936.13;;;6.18;100.00
44457;BME280;30159;49.316;8.558;2022-11-20T03:34:45;99937.19;;;6.11;100.00
44457;BME280;30159;49.316;8.558;2022-11-20T03:37:11;99940.44;;;6.19;100.00
44457;BME280;30159;49.316;8.558;2022-11-20T03:39:38;99921.06;;;5.96;100.00
44457;BME280;30159;49.316;8.558;2022-11-20T03:42:04;99942.75;;;5.95;100.00
44457;BME280;30159;49.316;8.558;2022-11-20T03:44:51;99950.25;;;5.60;100.00
44457;BME280;30159;49.316;8.558;2022-11-20T03:47:18;99956.94;;;5.58;100.00
44457;BME280;30159;49.316;8.558;2022-11-20T03:49:46;99964.34;;;5.45;100.00
44457;BME280;30159;49.316;8.558;2022-11-20T03:52:12;99965.56;;;5.33;100.00
44457;BME280;30159;49.316;8.558;2022-11-20T03:54:39;99960.81;;;5.40;100.00
44457;BME280;30159;49.316;8.558;2022-11-20T03:57:06;99952.31;;;5.48;100.00
44457;BME280;30159;49.316;8.558;2022-11-20T03:59:32;99945.13;;;5.54;100.00
44457;BME280;30159;49.316;8.558;2022-11-20T04:01:59;99931.50;;;5.55;100.00
44457;BME280;30159;49.316;8.558;2022-11-20T04:04:25;99941.22;;;5.66;100.00
44457;BME280;30159;49.316;8.558;2022-11-20T04:06:53;99935.34;;;5.75;100.00
44457;BME280;30159;49.316;8.558;2022-11-20T04:09:19;99931.69;;;5.86;100.00
44457;BME280;30159;49.316;8.558;2022-11-20T04:11:46;99937.31;;;5.89;100.00
44457;BME280;30159;49.316;8.558;2022-11-20T04:14:14;99929.56;;;5.93;100.00
44457;BME280;30159;49.316;8.558;2022-11-20T04:16:41;99933.94;;;6.04;100.00
44457;BME280;30159;49.316;8.558;2022-11-20T04:19:11;99931.28;;;6.04;100.00
44457;BME280;30159;49.316;8.558;2022-11-20T04:21:38;99932.84;;;5.95;100.00
44457;BME280;30159;49.316;8.558;2022-11-20T04:24:06;99927.09;;;5.76;100.00
44457;BME280;30159;49.316;8.558;2022-11-20T04:26:33;99931.59;;;5.70;100.00
44457;BME280;30159;49.316;8.558;2022-11-20T04:29:00;99904.81;;;5.65;100.00
44457;BME280;30159;49.316;8.558;2022-11-20T04:31:29;99922.00;;;5.80;100.00
44457;BME280;30159;49.316;8.558;2022-11-20T04:33:59;99919.41;;;5.90;100.00
44457;BME280;30159;49.316;8.558;2022-11-20T04:36:27;99878.78;;;5.51;100.00
44457;BME280;30159;49.316;8.558;2022-11-20T04:38:55;99918.31;;;5.86;100.00
44457;BME280;30159;49.316;8.558;2022-11-20T04:41:24;99913.50;;;5.88;100.00
44457;BME280;30159;49.316;8.558;2022-11-20T04:43:52;99919.31;;;5.75;100.00
44457;BME280;30159;49.316;8.558;2022-11-20T04:46:24;99935.31;;;5.64;100.00
44457;BME280;30159;49.316;8.558;2022-11-20T04:48:51;99868.13;;;5.18;100.00
44457;BME280;30159;49.316;8.558;2022-11-20T04:51:18;99935.22;;;5.54;100.00
44457;BME280;30159;49.316;8.558;2022-11-20T04:53:44;99937.31;;;5.47;100.00
44457;BME280;30159;49.316;8.558;2022-11-20T04:56:12;99937.91;;;5.54;100.00
44457;BME280;30159;49.316;8.558;2022-11-20T04:58:40;99938.13;;;5.47;100.00
44457;BME280;30159;49.316;8.558;2022-11-20T05:01:09;99949.53;;;5.38;100.00
44457;BME280;30159;49.316;8.558;2022-11-20T05:03:36;99957.56;;;5.38;100.00
44457;BME280;30159;49.316;8.558;2022-11-20T05:06:04;99910.41;;;5.26;100.00
44457;BME280;30159;49.316;8.558;2022-11-20T05:08:31;99951.41;;;5.75;100.00
44457;BME280;30159;49.316;8.558;2022-11-20T05:11:02;99943.94;;;5.77;100.00
44457;BME280;30159;49.316;8.558;2022-11-20T05:13:29;99946.38;;;5.83;100.00
44457;BME280;30159;49.316;8.558;2022-11-20T05:16:02;99936.06;;;5.97;100.00
44457;BME280;30159;49.316;8.558;2022-11-20T05:18:28;99914.13;;;6.00;100.00
44457;BME280;30159;49.316;8.558;2022-11-20T05:20:56;99927.06;;;6.24;100.00
44457;BME280;30159;49.316;8.558;2022-11-20T05:23:22;99935.63;;;6.21;100.00
44457;BME280;30159;49.316;8.558;2022-11-20T05:25:52;99924.94;;;6.26;100.00
44457;BME280;30159;49.316;8.558;2022-11-20T05:28:18;99920.94;;;6.33;100.00
44457;BME280;30159;49.316;8.558;2022-11-20T05:30:45;99924.69;;;6.32;100.00
44457;BME280;30159;49.316;8.558;2022-11-20T05:33:12;99920.16;;;6.38;100.00
44457;BME280;30159;49.316;8.558;2022-11-20T05:35:39;99916.44;;;6.44;100.00
44457;BME280;30159;49.316;8.558;2022-11-20T05:38:06;99914.00;;;6.48;100.00
44457;BME280;30159;49.316;8.558;2022-11-20T05:40:33;99912.41;;;6.52;100.00
44457;BME280;30159;49.316;8.558;2022-11-20T05:42:59;99925.50;;;6.43;100.00
44457;BME280;30159;49.316;8.558;2022-11-20T05:45:26;99909.44;;;6.38;100.00
44457;BME280;30159;49.316;8.558;2022-11-20T05:47:52;99901.69;;;6.42;100.00
44457;BME280;30159;49.316;8.558;2022-11-20T05:50:20;99916.44;;;6.54;100.00
44457;BME280;30159;49.316;8.558;2022-11-20T05:52:47;99903.59;;;6.57;100.00
44457;BME280;30159;49.316;8.558;2022-11-20T05:55:13;99905.75;;;6.75;100.00
44457;BME280;30159;49.316;8.558;2022-11-20T05:57:40;99911.66;;;6.77;100.00
44457;BME280;30159;49.316;8.558;2022-11-20T06:00:07;99864.72;;;6.49;100.00
44457;BME280;30159;49.316;8.558;2022-11-20T06:02:34;99917.03;;;6.82;100.00
44457;BME280;30159;49.316;8.558;2022-11-20T06:05:01;99899.06;;;6.78;100.00
44457;BME280;30159;49.316;8.558;2022-11-20T06:07:29;99911.13;;;6.85;100.00
44457;BME280;30159;49.316;8.558;2022-11-20T06:09:55;99911.13;;;6.80;100.00
44457;BME280;30159;49.316;8.558;2022-11-20T06:12:22;99903.13;;;6.90;100.00
44457;BME280;30159;49.316;8.558;2022-11-20T06:14:48;99905.25;;;6.99;100.00
44457;BME280;30159;49.316;8.558;2022-11-20T06:17:15;99905.78;;;7.01;100.00
44457;BME280;30159;49.316;8.558;2022-11-20T06:19:41;99904.44;;;7.03;100.00
44457;BME280;30159;49.316;8.558;2022-11-20T06:22:08;99902.06;;;7.07;100.00
44457;BME280;30159;49.316;8.558;2022-11-20T06:24:35;99911.44;;;7.09;100.00
44457;BME280;30159;49.316;8.558;2022-11-20T06:27:02;99912.22;;;7.10;100.00
44457;BME280;30159;49.316;8.558;2022-11-20T06:29:29;99916.25;;;7.17;100.00
44457;BME280;30159;49.316;8.558;2022-11-20T06:31:55;99910.63;;;7.14;100.00
44457;BME280;30159;49.316;8.558;2022-11-20T06:34:22;99893.47;;;7.25;100.00
44457;BME280;30159;49.316;8.558;2022-11-20T06:36:48;99892.94;;;7.18;100.00
44457;BME280;30159;49.316;8.558;2022-11-20T06:39:15;99898.28;;;7.28;100.00
44457;BME280;30159;49.316;8.558;2022-11-20T06:41:43;99888.06;;;7.20;100.00
44457;BME280;30159;49.316;8.558;2022-11-20T06:44:09;99890.22;;;7.13;100.00
44457;BME280;30159;49.316;8.558;2022-11-20T06:46:36;99895.06;;;7.16;100.00
44457;BME280;30159;49.316;8.558;2022-11-20T06:49:03;99891.03;;;7.08;100.00
44457;BME280;30159;49.316;8.558;2022-11-20T06:51:30;99902.06;;;7.07;100.00
44457;BME280;30159;49.316;8.558;2022-11-20T06:53:57;99903.41;;;7.04;100.00
44457;BME280;30159;49.316;8.558;2022-11-20T06:56:23;99911.69;;;7.08;100.00
44457;BME280;30159;49.316;8.558;2022-11-20T06:58:51;99911.72;;;7.18;100.00
44457;BME280;30159;49.316;8.558;2022-11-20T07:01:18;99913.84;;;7.16;100.00
44457;BME280;30159;49.316;8.558;2022-11-20T07:03:44;99906.84;;;7.20;100.00
44457;BME280;30159;49.316;8.558;2022-11-20T07:06:11;99917.59;;;7.25;100.00
44457;BME280;30159;49.316;8.558;2022-11-20T07:08:37;99901.50;;;7.25;100.00
44457;BME280;30159;49.316;8.558;2022-11-20T07:11:05;99913.84;;;7.26;100.00
44457;BME280;30159;49.316;8.558;2022-11-20T07:13:32;99915.97;;;7.29;100.00
44457;BME280;30159;49.316;8.558;2022-11-20T07:16:02;99915.69;;;7.36;100.00
44457;BME280;30159;49.316;8.558;2022-11-20T07:18:29;99913.31;;;7.34;100.00
44457;BME280;30159;49.316;8.558;2022-11-20T07:20:56;99917.88;;;7.39;100.00
44457;BME280;30159;49.316;8.558;2022-11-20T07:23:22;99910.06;;;7.43;100.00
44457;BME280;30159;49.316;8.558;2022-11-20T07:25:49;99918.94;;;7.48;100.00
44457;BME280;30159;49.316;8.558;2022-11-20T07:28:15;99912.75;;;7.48;100.00
44457;BME280;30159;49.316;8.558;2022-11-20T07:30:42;99920.50;;;7.59;100.00
44457;BME280;30159;49.316;8.558;2022-11-20T07:33:10;99918.06;;;7.68;100.00
44457;BME280;30159;49.316;8.558;2022-11-20T07:35:36;99909.75;;;7.70;100.00
44457;BME280;30159;49.316;8.558;2022-11-20T07:38:03;99911.34;;;7.81;100.00
44457;BME280;30159;49.316;8.558;2022-11-20T07:40:29;99911.56;;;7.90;100.00
44457;BME280;30159;49.316;8.558;2022-11-20T07:42:56;99912.69;;;7.84;100.00
44457;BME280;30159;49.316;8.558;2022-11-20T07:45:23;99928.78;;;7.84;100.00
44457;BME280;30159;49.316;8.558;2022-11-20T07:47:50;99920.44;;;7.85;100.00
44457;BME280;30159;49.316;8.558;2022-11-20T07:50:19;99854.81;;;7.31;100.00
44457;BME280;30159;49.316;8.558;2022-11-20T07:52:46;99936.31;;;7.76;100.00
44457;BME280;30159;49.316;8.558;2022-11-20T07:55:12;99940.34;;;7.79;100.00
44457;BME280;30159;49.316;8.558;2022-11-20T07:57:39;99944.09;;;7.78;100.00
44457;BME280;30159;49.316;8.558;2022-11-20T08:00:07;99954.53;;;7.95;100.00
44457;BME280;30159;49.316;8.558;2022-11-20T08:02:36;99949.44;;;7.88;100.00
44457;BME280;30159;49.316;8.558;2022-11-20T08:05:03;99952.41;;;7.87;100.00
44457;BME280;30159;49.316;8.558;2022-11-20T08:07:36;99950.50;;;7.92;100.00
44457;BME280;30159;49.316;8.558;2022-11-20T08:10:03;99949.69;;;7.97;100.00
44457;BME280;30159;49.316;8.558;2022-11-20T08:12:30;99946.75;;;7.93;100.00
44457;BME280;30159;49.316;8.558;2022-11-20T08:15:29;99901.97;;;7.68;100.00
44457;BME280;30159;49.316;8.558;2022-11-20T08:18:00;99959.91;;;7.95;100.00
44457;BME280;30159;49.316;8.558;2022-11-20T08:20:26;99958.25;;;8.09;100.00
44457;BME280;30159;49.316;8.558;2022-11-20T08:22:58;99960.38;;;8.12;100.00
44457;BME280;30159;49.316;8.558;2022-11-20T08:25:26;99958.44;;;8.33;100.00
44457;BME280;30159;49.316;8.558;2022-11-20T08:27:52;99942.63;;;8.21;100.00
44457;BME280;30159;49.316;8.558;2022-11-20T08:30:19;99956.59;;;8.23;100.00
44457;BME280;30159;49.316;8.558;2022-11-20T08:32:45;99953.88;;;8.29;100.00
44457;BME280;30159;49.316;8.558;2022-11-20T08:35:12;99950.09;;;8.40;100.00
44457;BME280;30159;49.316;8.558;2022-11-20T08:37:39;99961.38;;;8.37;100.00
44457;BME280;30159;49.316;8.558;2022-11-20T08:40:10;99968.31;;;8.48;100.00
44457;BME280;30159;49.316;8.558;2022-11-20T08:42:36;99954.28;;;8.61;100.00
44457;BME280;30159;49.316;8.558;2022-11-20T08:45:04;99963.16;;;8.62;100.00
44457;BME280;30159;49.316;8.558;2022-11-20T08:47:30;99967.72;;;8.61;100.00
44457;BME280;30159;49.316;8.558;2022-11-20T08:49:57;99964.47;;;8.70;100.00
44457;BME280;30159;49.316;8.558;2022-11-20T08:52:23;99967.91;;;8.80;100.00
44457;BME280;30159;49.316;8.558;2022-11-20T08:54:50;99978.88;;;8.89;100.00
44457;BME280;30159;49.316;8.558;2022-11-20T08:57:18;99960.63;;;8.81;100.00
44457;BME280;30159;49.316;8.558;2022-11-20T08:59:44;99970.84;;;8.84;100.00
44457;BME280;30159;49.316;8.558;2022-11-20T09:02:11;99969.97;;;8.94;100.00
44457;BME280;30159;49.316;8.558;2022-11-20T09:04:38;99970.84;;;8.84;100.00
44457;BME280;30159;49.316;8.558;2022-11-20T09:07:04;99970.34;;;8.77;100.00
44457;BME280;30159;49.316;8.558;2022-11-20T09:09:31;99971.97;;;8.73;100.00
44457;BME280;30159;49.316;8.558;2022-11-20T09:11:57;99989.13;;;8.82;100.00
44457;BME280;30159;49.316;8.558;2022-11-20T09:14:25;99978.13;;;8.78;100.00
44457;BME280;30159;49.316;8.558;2022-11-20T09:16:54;99969.28;;;8.73;100.00
44457;BME280;30159;49.316;8.558;2022-11-20T09:19:21;99979.44;;;8.86;100.00
44457;BME280;30159;49.316;8.558;2022-11-20T09:21:47;99983.91;;;9.01;100.00
44457;BME280;30159;49.316;8.558;2022-11-20T09:24:14;99982.50;;;9.08;100.00
44457;BME280;30159;49.316;8.558;2022-11-20T09:26:40;99975.22;;;9.14;100.00
44457;BME280;30159;49.316;8.558;2022-11-20T09:29:07;99972.88;;;9.02;100.00
44457;BME280;30159;49.316;8.558;2022-11-20T09:31:35;99962.84;;;9.13;100.00
44457;BME280;30159;49.316;8.558;2022-11-20T09:34:01;99975.13;;;9.24;100.00
44457;BME280;30159;49.316;8.558;2022-11-20T09:36:28;99971.13;;;9.22;100.00
44457;BME280;30159;49.316;8.558;2022-11-20T09:38:54;99969.34;;;9.07;100.00
44457;BME280;30159;49.316;8.558;2022-11-20T09:41:46;99978.63;;;9.25;100.00
44457;BME280;30159;49.316;8.558;2022-11-20T09:44:28;99919.09;;;8.97;100.00
44457;BME280;30159;49.316;8.558;2022-11-20T09:47:02;99982.31;;;9.34;100.00
44457;BME280;30159;49.316;8.558;2022-11-20T09:49:46;99979.00;;;9.47;100.00
44457;BME280;30159;49.316;8.558;2022-11-20T09:52:22;99972.03;;;9.41;100.00
44457;BME280;30159;49.316;8.558;2022-11-20T09:54:54;99968.22;;;9.47;100.00
44457;BME280;30159;49.316;8.558;2022-11-20T09:57:33;99967.44;;;9.47;100.00
44457;BME280;30159;49.316;8.558;2022-11-20T10:00:04;99981.28;;;9.64;100.00
44457;BME280;30159;49.316;8.558;2022-11-20T10:02:37;99982.38;;;9.63;100.00
44457;BME280;30159;49.316;8.558;2022-11-20T10:05:11;99970.00;;;9.28;100.00
44457;BME280;30159;49.316;8.558;2022-11-20T10:07:43;99972.56;;;9.43;100.00
44457;BME280;30159;49.316;8.558;2022-11-20T10:10:15;99975.50;;;9.47;100.00
44457;BME280;30159;49.316;8.558;2022-11-20T10:12:54;99979.47;;;9.55;100.00
44457;BME280;30159;49.316;8.558;2022-11-20T10:15:31;99935.63;;;9.20;100.00
44457;BME280;30159;49.316;8.558;2022-11-20T10:18:23;99965.97;;;9.60;100.00
44457;BME280;30159;49.316;8.558;2022-11-20T10:20:59;99900.31;;;9.26;100.00
44457;BME280;30159;49.316;8.558;2022-11-20T10:23:41;99965.31;;;9.73;100.00
44457;BME280;30159;49.316;8.558;2022-11-20T10:26:17;99923.97;;;9.59;100.00
44457;BME280;30159;49.316;8.558;2022-11-20T10:28:56;99958.50;;;9.52;100.00
44457;BME280;30159;49.316;8.558;2022-11-20T10:31:31;99958.22;;;9.53;100.00
44457;BME280;30159;49.316;8.558;2022-11-20T10:34:03;99951.66;;;9.64;100.00
44457;BME280;30159;49.316;8.558;2022-11-20T10:36:35;99951.22;;;9.81;100.00
44457;BME280;30159;49.316;8.558;2022-11-20T10:39:13;99949.50;;;9.90;100.00
44457;BME280;30159;49.316;8.558;2022-11-20T10:41:42;99944.16;;;9.85;100.00
44457;BME280;30159;49.316;8.558;2022-11-20T10:44:12;99935.28;;;9.85;100.00
44457;BME280;30159;49.316;8.558;2022-11-20T10:47:01;99945.47;;;9.88;100.00
44457;BME280;30159;49.316;8.558;2022-11-20T10:49:30;99944.47;;;9.84;100.00
44457;BME280;30159;49.316;8.558;2022-11-20T10:52:03;99940.31;;;9.67;100.00
44457;BME280;30159;49.316;8.558;2022-11-20T10:54:37;99937.28;;;9.74;100.00
44457;BME280;30159;49.316;8.558;2022-11-20T10:57:13;99879.19;;;9.68;100.00
44457;BME280;30159;49.316;8.558;2022-11-20T10:59:49;99937.81;;;10.24;100.00
44457;BME280;30159;49.316;8.558;2022-11-20T11:02:21;99924.31;;;10.48;100.00
44457;BME280;30159;49.316;8.558;2022-11-20T11:04:51;99937.09;;;10.81;100.00
44457;BME280;30159;49.316;8.558;2022-11-20T11:07:22;99929.00;;;10.81;100.00
44457;BME280;30159;49.316;8.558;2022-11-20T11:09:51;99922.13;;;10.69;100.00
44457;BME280;30159;49.316;8.558;2022-11-20T11:12:19;99883.06;;;10.48;100.00
44457;BME280;30159;49.316;8.558;2022-11-20T11:14:48;99926.06;;;10.58;100.00
44457;BME280;30159;49.316;8.558;2022-11-20T11:17:27;99915.75;;;10.65;100.00
44457;BME280;30159;49.316;8.558;2022-11-20T11:20:05;99913.16;;;10.74;100.00
44457;BME280;30159;49.316;8.558;2022-11-20T11:22:34;99864.34;;;10.38;100.00
44457;BME280;30159;49.316;8.558;2022-11-20T11:25:18;99902.75;;;10.67;100.00
44457;BME280;30159;49.316;8.558;2022-11-20T11:27:46;99836.28;;;10.39;100.00
44457;BME280;30159;49.316;8.558;2022-11-20T11:30:14;99894.69;;;11.00;100.00
44457;BME280;30159;49.316;8.558;2022-11-20T11:32:41;99891.44;;;11.03;100.00
44457;BME280;30159;49.316;8.558;2022-11-20T11:35:22;99806.91;;;10.75;100.00
44457;BME280;30159;49.316;8.558;2022-11-20T11:37:49;99882.09;;;11.28;100.00
44457;BME280;30159;49.316;8.558;2022-11-20T11:40:17;99887.63;;;11.51;100.00
44457;BME280;30159;49.316;8.558;2022-11-20T11:42:52;99883.63;;;11.48;100.00
44457;BME280;30159;49.316;8.558;2022-11-20T11:45:20;99878.63;;;11.55;100.00
44457;BME280;30159;49.316;8.558;2022-11-20T11:47:47;99868.03;;;11.45;100.00
44457;BME280;30159;49.316;8.558;2022-11-20T11:50:17;99876.00;;;11.36;100.00
44457;BME280;30159;49.316;8.558;2022-11-20T11:52:50;99868.41;;;11.38;100.00
44457;BME280;30159;49.316;8.558;2022-11-20T11:55:26;99874.00;;;11.28;96.20
44457;BME280;30159;49.316;8.558;2022-11-20T11:58:04;99874.75;;;11.15;94.27
44457;BME280;30159;49.316;8.558;2022-11-20T12:00:35;99879.09;;;10.97;96.25
44457;BME280;30159;49.316;8.558;2022-11-20T12:03:09;99871.03;;;10.78;94.00
44457;BME280;30159;49.316;8.558;2022-11-20T12:05:42;99818.09;;;10.30;94.69
44457;BME280;30159;49.316;8.558;2022-11-20T12:08:15;99874.78;;;10.63;92.73
44457;BME280;30159;49.316;8.558;2022-11-20T12:10:46;99854.66;;;10.37;92.40
44457;BME280;30159;49.316;8.558;2022-11-20T12:13:28;99851.88;;;10.42;95.86
44457;BME280;30159;49.316;8.558;2022-11-20T12:15:59;99833.03;;;10.61;97.04
44457;BME280;30159;49.316;8.558;2022-11-20T12:18:27;99865.00;;;10.86;94.82
44457;BME280;30159;49.316;8.558;2022-11-20T12:21:04;99848.94;;;10.76;95.09
44457;BME280;30159;49.316;8.558;2022-11-20T12:23:44;99869.91;;;10.65;94.20
44457;BME280;30159;49.316;8.558;2022-11-20T12:26:19;99868.00;;;10.66;94.28
44457;BME280;30159;49.316;8.558;2022-11-20T12:28:58;99862.97;;;10.59;94.16
44457;BME280;30159;49.316;8.558;2022-11-20T12:31:40;99859.84;;;10.52;94.94
44457;BME280;30159;49.316;8.558;2022-11-20T12:34:29;99857.22;;;10.47;91.80
44457;BME280;30159;49.316;8.558;2022-11-20T12:37:01;99864.13;;;10.53;92.71
44457;BME280;30159;49.316;8.558;2022-11-20T12:39:35;99866.47;;;10.60;92.81
44457;BME280;30159;49.316;8.558;2022-11-20T12:42:11;99857.72;;;10.68;93.34
44457;BME280;30159;49.316;8.558;2022-11-20T12:45:35;99846.75;;;10.78;92.34
44457;BME280;30159;49.316;8.558;2022-11-20T12:48:22;99858.84;;;10.81;92.36
44457;BME280;30159;49.316;8.558;2022-11-20T12:53:58;99852.13;;;10.97;91.36
44457;BME280;30159;49.316;8.558;2022-11-20T12:56:35;99836.53;;;10.94;91.10
44457;BME280;30159;49.316;8.558;2022-11-20T12:59:19;99710.75;;;10.13;91.52
44457;BME280;30159;49.316;8.558;2022-11-20T13:01:52;99841.38;;;11.25;92.58
44457;BME280;30159;49.316;8.558;2022-11-20T13:04:34;99841.81;;;11.32;87.88
44457;BME280;30159;49.316;8.558;2022-11-20T13:07:08;99840.38;;;11.21;88.25
44457;BME280;30159;49.316;8.558;2022-11-20T13:09:39;99830.84;;;11.09;87.36
44457;BME280;30159;49.316;8.558;2022-11-20T13:12:11;99788.91;;;10.70;85.09
44457;BME280;30159;49.316;8.558;2022-11-20T13:14:42;99834.34;;;10.96;87.08